createdAt,value
2022-12-11T00:01:13.762Z,69.34
2022-12-11T00:03:40.744Z,69.43
2022-12-11T00:06:07.716Z,69.50
2022-12-11T00:08:34.407Z,69.12
2022-12-11T00:11:02.792Z,69.34
2022-12-11T00:13:29.436Z,68.84
2022-12-11T00:15:58.211Z,69.21
2022-12-11T00:18:24.722Z,68.91
2022-12-11T00:20:51.347Z,69.02
2022-12-11T00:23:17.849Z,68.99
2022-12-11T00:25:44.990Z,69.01
2022-12-11T00:28:13.084Z,69.19
2022-12-11T00:30:40.732Z,69.00
2022-12-11T00:33:07.259Z,69.02
2022-12-11T00:35:33.788Z,69.51
2022-12-11T00:38:00.488Z,69.00
2022-12-11T00:40:26.981Z,69.07
2022-12-11T00:42:53.839Z,69.14
2022-12-11T00:45:21.716Z,69.21
2022-12-11T00:47:48.287Z,69.23
2022-12-11T00:50:14.869Z,69.24
2022-12-11T00:52:41.523Z,68.92
2022-12-11T00:55:08.319Z,69.28
2022-12-11T00:57:35.587Z,69.58
2022-12-11T01:00:02.274Z,69.53
2022-12-11T01:02:30.212Z,69.34
2022-12-11T01:04:56.755Z,69.34
2022-12-11T01:07:23.256Z,69.71
2022-12-11T01:10:08.515Z,69.35
2022-12-11T01:12:35.034Z,69.48
2022-12-11T01:15:01.599Z,69.19
2022-12-11T01:17:28.282Z,68.93
2022-12-11T01:19:56.171Z,68.81
2022-12-11T01:22:22.984Z,68.98
2022-12-11T01:24:49.645Z,68.75
2022-12-11T01:27:16.155Z,68.75
2022-12-11T01:29:42.790Z,68.67
2022-12-11T01:32:09.256Z,68.39
2022-12-11T01:34:35.821Z,68.15
2022-12-11T01:37:03.744Z,68.07
2022-12-11T01:39:30.786Z,67.72
2022-12-11T01:41:57.510Z,67.92
2022-12-11T01:44:42.851Z,67.95
2022-12-11T01:47:09.353Z,68.40
2022-12-11T01:49:36.261Z,68.49
2022-12-11T01:52:07.676Z,68.94
2022-12-11T01:54:34.503Z,68.61
2022-12-11T01:57:03.007Z,68.81
2022-12-11T01:59:31.406Z,68.61
2022-12-11T02:02:00.874Z,68.67
2022-12-11T02:04:28.191Z,69.19
2022-12-11T02:06:54.836Z,69.20
2022-12-11T02:09:24.464Z,69.00
2022-12-11T02:11:55.848Z,69.10
2022-12-11T02:14:28.048Z,68.80
2022-12-11T02:16:59.784Z,68.92
2022-12-11T02:19:38.007Z,69.27
2022-12-11T02:22:08.903Z,69.23
2022-12-11T02:24:46.972Z,69.14
2022-12-11T02:27:17.940Z,69.15
2022-12-11T02:29:48.363Z,68.91
2022-12-11T02:32:17.295Z,69.11
2022-12-11T02:34:46.653Z,69.28
2022-12-11T02:37:16.726Z,69.15
2022-12-11T02:39:44.379Z,69.04
2022-12-11T02:42:11.792Z,69.03
2022-12-11T02:44:39.390Z,69.45
2022-12-11T02:47:08.600Z,69.54
2022-12-11T02:49:35.428Z,69.41
2022-12-11T02:52:03.402Z,69.36
2022-12-11T02:54:31.675Z,69.36
2022-12-11T02:57:00.972Z,69.24
2022-12-11T02:59:30.793Z,69.04
2022-12-11T03:01:58.178Z,68.82
2022-12-11T03:04:26.137Z,69.11
2022-12-11T03:06:54.911Z,68.27
2022-12-11T03:09:21.449Z,68.55
2022-12-11T03:11:47.932Z,68.38
2022-12-11T03:14:14.472Z,67.81
2022-12-11T03:16:42.949Z,67.34
2022-12-11T03:19:15.693Z,68.37
2022-12-11T03:21:45.685Z,68.21
2022-12-11T03:24:19.058Z,68.30
2022-12-11T03:26:55.983Z,67.92
2022-12-11T03:29:25.586Z,67.41
2022-12-11T03:31:56.604Z,68.17
2022-12-11T03:34:25.484Z,67.76
2022-12-11T03:36:55.609Z,67.98
2022-12-11T03:39:25.798Z,68.18
2022-12-11T03:41:53.389Z,67.94
2022-12-11T03:44:20.808Z,68.11
2022-12-11T03:46:49.049Z,68.45
2022-12-11T03:49:17.726Z,68.45
2022-12-11T03:51:46.409Z,68.42
2022-12-11T03:54:14.576Z,68.35
2022-12-11T03:56:43.094Z,68.84
2022-12-11T03:59:09.727Z,68.80
2022-12-11T04:01:36.326Z,68.92
2022-12-11T04:04:02.963Z,69.06
2022-12-11T04:06:29.448Z,69.06
2022-12-11T04:08:55.931Z,69.11
2022-12-11T04:11:36.039Z,68.91
2022-12-11T04:14:21.724Z,68.96
2022-12-11T04:16:48.252Z,69.05
2022-12-11T04:19:33.713Z,68.90
2022-12-11T04:22:15.510Z,69.01
2022-12-11T04:24:42.015Z,69.10
2022-12-11T04:27:10.065Z,69.31
2022-12-11T04:29:36.594Z,69.44
2022-12-11T04:32:03.133Z,68.99
2022-12-11T04:34:30.080Z,68.83
2022-12-11T04:36:56.547Z,69.03
2022-12-11T04:39:23.053Z,69.28
2022-12-11T04:41:49.600Z,68.84
2022-12-11T04:44:17.677Z,68.96
2022-12-11T04:46:44.654Z,69.22
2022-12-11T04:49:11.345Z,69.09
2022-12-11T04:51:37.853Z,69.01
2022-12-11T04:54:04.394Z,69.20
2022-12-11T04:56:30.851Z,69.26
2022-12-11T04:58:57.329Z,68.91
2022-12-11T05:01:25.225Z,69.14
2022-12-11T05:03:51.915Z,69.07
2022-12-11T05:06:18.476Z,69.11
2022-12-11T05:08:45.370Z,69.72
2022-12-11T05:11:12.881Z,69.32
2022-12-11T05:13:39.491Z,69.30
2022-12-11T05:16:06.737Z,69.16
2022-12-11T05:18:34.988Z,69.20
2022-12-11T05:21:02.378Z,69.27
2022-12-11T05:23:29.292Z,69.59
2022-12-11T05:25:56.344Z,69.45
2022-12-11T05:28:23.371Z,69.43
2022-12-11T05:30:54.597Z,69.35
2022-12-11T05:33:21.146Z,69.48
2022-12-11T05:35:49.159Z,69.45
2022-12-11T05:38:15.694Z,69.15
2022-12-11T05:40:42.204Z,69.68
2022-12-11T05:43:08.845Z,69.51
2022-12-11T05:45:35.389Z,70.00
2022-12-11T05:48:01.925Z,69.92
2022-12-11T05:50:28.579Z,69.38
2022-12-11T05:52:56.438Z,69.44
2022-12-11T05:55:22.948Z,69.40
2022-12-11T05:57:49.734Z,69.44
2022-12-11T06:00:16.383Z,69.48
2022-12-11T06:02:43.050Z,69.49
2022-12-11T06:05:09.931Z,69.52
2022-12-11T06:07:36.550Z,69.46
2022-12-11T06:10:04.779Z,69.91
2022-12-11T06:12:32.026Z,69.57
2022-12-11T06:14:58.493Z,69.96
2022-12-11T06:17:24.991Z,69.79
2022-12-11T06:19:51.480Z,70.17
2022-12-11T06:22:18.073Z,69.80
2022-12-11T06:24:44.594Z,69.91
2022-12-11T06:27:12.440Z,69.64
2022-12-11T06:29:38.949Z,69.79
2022-12-11T06:32:05.483Z,69.98
2022-12-11T06:34:31.975Z,69.78
2022-12-11T06:36:58.474Z,70.05
2022-12-11T06:39:24.946Z,69.87
2022-12-11T06:41:51.491Z,70.06
2022-12-11T06:44:19.444Z,69.66
2022-12-11T06:46:45.891Z,69.03
2022-12-11T06:49:12.367Z,69.23
2022-12-11T06:51:39.438Z,69.64
2022-12-11T06:54:05.944Z,69.70
2022-12-11T06:56:34.155Z,69.92
2022-12-11T06:59:05.701Z,69.96
2022-12-11T07:01:35.400Z,69.56
2022-12-11T07:04:01.926Z,69.63
2022-12-11T07:06:28.917Z,70.05
2022-12-11T07:08:55.761Z,70.03
2022-12-11T07:11:24.143Z,69.59
2022-12-11T07:13:50.779Z,69.66
2022-12-11T07:16:17.907Z,68.38
2022-12-11T07:18:48.184Z,68.61
2022-12-11T07:21:14.946Z,68.17
2022-12-11T07:23:41.435Z,68.12
2022-12-11T07:26:09.564Z,68.27
2022-12-11T07:28:36.081Z,67.79
2022-12-11T07:31:04.740Z,67.31
2022-12-11T07:33:31.336Z,67.18
2022-12-11T07:36:02.116Z,67.54
2022-12-11T07:38:28.693Z,68.15
2022-12-11T07:40:55.139Z,68.80
2022-12-11T07:43:21.681Z,68.39
2022-12-11T07:45:48.245Z,68.53
2022-12-11T07:48:14.863Z,68.12
2022-12-11T07:50:41.352Z,67.78
2022-12-11T07:53:09.203Z,67.68
2022-12-11T07:55:35.719Z,67.22
2022-12-11T07:58:02.197Z,67.37
2022-12-11T08:00:28.665Z,67.84
2022-12-11T08:02:55.181Z,68.17
2022-12-11T08:05:22.617Z,68.15
2022-12-11T08:07:49.284Z,67.97
2022-12-11T08:10:17.311Z,67.85
2022-12-11T08:12:43.911Z,67.96
2022-12-11T08:15:10.964Z,68.46
2022-12-11T08:17:40.163Z,68.21
2022-12-11T08:20:08.312Z,68.13
2022-12-11T08:22:34.775Z,67.44
2022-12-11T08:25:01.436Z,66.31
2022-12-11T08:27:29.455Z,65.46
2022-12-11T08:29:56.889Z,66.19
2022-12-11T08:32:23.468Z,66.57
2022-12-11T08:34:51.076Z,66.60
2022-12-11T08:37:17.537Z,66.30
2022-12-11T08:39:44.972Z,66.74
2022-12-11T08:42:11.815Z,67.14
2022-12-11T08:44:39.664Z,67.61
2022-12-11T08:47:06.255Z,67.37
2022-12-11T08:49:34.749Z,66.95
2022-12-11T08:52:02.509Z,65.91
2022-12-11T08:54:29.311Z,64.18
2022-12-11T08:56:58.198Z,64.07
2022-12-11T08:59:25.684Z,64.28
2022-12-11T09:01:54.204Z,64.92
2022-12-11T09:04:20.689Z,65.10
2022-12-11T09:06:47.240Z,65.16
2022-12-11T09:09:14.660Z,65.32
2022-12-11T09:11:41.521Z,64.93
2022-12-11T09:14:08.419Z,63.97
2022-12-11T09:16:37.749Z,63.30
2022-12-11T09:19:07.104Z,63.03
2022-12-11T09:21:33.771Z,62.91
2022-12-11T09:24:00.871Z,62.65
2022-12-11T09:26:28.091Z,62.16
2022-12-11T09:28:54.956Z,61.91
2022-12-11T09:31:23.622Z,62.02
2022-12-11T09:33:51.141Z,61.33
2022-12-11T09:36:19.111Z,60.19
2022-12-11T09:38:45.685Z,59.79
2022-12-11T09:41:23.020Z,59.73
2022-12-11T09:43:52.177Z,60.86
2022-12-11T09:46:21.621Z,61.19
2022-12-11T09:48:53.604Z,61.78
2022-12-11T09:51:24.565Z,60.87
2022-12-11T09:53:51.798Z,60.29
2022-12-11T09:56:22.139Z,58.82
2022-12-11T09:58:54.756Z,57.55
2022-12-11T10:01:25.128Z,57.34
2022-12-11T10:04:00.867Z,57.09
2022-12-11T10:06:31.362Z,57.18
2022-12-11T10:09:03.508Z,56.85
2022-12-11T10:11:45.415Z,56.53
2022-12-11T10:14:18.266Z,56.38
2022-12-11T10:16:45.732Z,55.85
2022-12-11T10:19:16.897Z,55.97
2022-12-11T10:21:44.975Z,55.32
2022-12-11T10:24:24.351Z,54.59
2022-12-11T10:27:12.373Z,54.70
2022-12-11T10:29:39.072Z,54.91
2022-12-11T10:32:11.653Z,54.38
2022-12-11T10:34:40.270Z,53.87
2022-12-11T10:37:17.291Z,53.39
2022-12-11T10:39:44.049Z,52.36
2022-12-11T10:42:16.194Z,51.66
2022-12-11T10:44:54.781Z,51.88
2022-12-11T10:47:21.263Z,51.32
2022-12-11T10:49:52.349Z,51.07
2022-12-11T10:52:21.973Z,50.63
2022-12-11T10:54:54.717Z,50.28
2022-12-11T10:57:26.604Z,48.72
2022-12-11T10:59:53.407Z,48.36
2022-12-11T11:02:23.038Z,47.49
2022-12-11T11:04:50.066Z,46.92
2022-12-11T11:07:20.999Z,46.75
2022-12-11T11:09:47.803Z,46.25
2022-12-11T11:12:20.219Z,45.66
2022-12-11T11:14:46.707Z,44.97
2022-12-11T11:17:15.695Z,44.18
2022-12-11T11:19:45.917Z,44.16
2022-12-11T11:22:14.013Z,43.89
2022-12-11T11:24:44.205Z,43.54
2022-12-11T11:27:20.769Z,42.92
2022-12-11T11:29:52.837Z,43.20
2022-12-11T11:32:22.424Z,43.77
2022-12-11T11:34:48.976Z,44.33
2022-12-11T11:37:22.899Z,44.71
2022-12-11T11:39:52.933Z,44.76
2022-12-11T11:42:23.257Z,45.29
2022-12-11T11:44:58.589Z,45.82
2022-12-11T11:47:27.826Z,45.60
2022-12-11T11:50:00.036Z,46.15
2022-12-11T11:52:29.069Z,46.33
2022-12-11T11:55:05.829Z,46.77
2022-12-11T11:57:35.399Z,46.55
2022-12-11T12:00:09.804Z,47.86
2022-12-11T12:02:40.573Z,50.10
2022-12-11T12:05:09.945Z,49.36
2022-12-11T12:07:40.593Z,49.01
2022-12-11T12:10:14.939Z,48.13
2022-12-11T12:12:46.886Z,48.65
2022-12-11T12:15:21.868Z,48.29
2022-12-11T12:17:55.457Z,48.92
2022-12-11T12:20:30.814Z,49.06
2022-12-11T12:23:02.058Z,48.18
2022-12-11T12:25:34.864Z,47.69
2022-12-11T12:28:06.106Z,45.42
2022-12-11T12:30:40.154Z,42.04
2022-12-11T12:33:15.072Z,41.06
2022-12-11T12:35:45.125Z,42.34
2022-12-11T12:38:15.270Z,41.63
2022-12-11T12:40:51.476Z,39.67
2022-12-11T12:43:30.028Z,39.71
2022-12-11T12:46:03.924Z,39.43
2022-12-11T12:48:30.853Z,40.64
2022-12-11T12:50:57.574Z,41.92
2022-12-11T12:53:26.601Z,43.73
2022-12-11T12:55:54.915Z,44.60
2022-12-11T12:58:25.625Z,44.82
2022-12-11T13:00:52.386Z,45.23
2022-12-11T13:03:22.905Z,45.95
2022-12-11T13:05:56.701Z,46.68
2022-12-11T13:08:24.997Z,46.91
2022-12-11T13:10:58.737Z,47.49
2022-12-11T13:13:30.881Z,48.16
2022-12-11T13:16:05.721Z,48.14
2022-12-11T13:18:34.868Z,49.10
2022-12-11T13:21:01.954Z,49.71
2022-12-11T13:23:29.419Z,50.36
2022-12-11T13:25:57.283Z,50.58
2022-12-11T13:28:30.186Z,51.33
2022-12-11T13:31:08.113Z,51.37
2022-12-11T13:33:41.292Z,52.28
2022-12-11T13:36:26.504Z,52.05
2022-12-11T13:38:54.928Z,52.52
2022-12-11T13:41:21.749Z,53.06
2022-12-11T13:43:50.481Z,52.85
2022-12-11T13:46:20.921Z,53.68
2022-12-11T13:48:48.712Z,53.58
2022-12-11T13:51:17.117Z,54.54
2022-12-11T13:53:43.969Z,55.40
2022-12-11T13:56:16.299Z,55.26
2022-12-11T13:58:42.933Z,55.25
2022-12-11T14:01:12.957Z,55.60
2022-12-11T14:03:40.193Z,55.90
2022-12-11T14:06:16.436Z,55.69
2022-12-11T14:08:46.252Z,56.46
2022-12-11T14:11:18.608Z,56.62
2022-12-11T14:13:45.776Z,56.79
2022-12-11T14:16:19.590Z,57.03
2022-12-11T14:18:48.622Z,56.95
2022-12-11T14:21:18.680Z,56.73
2022-12-11T14:23:51.220Z,57.13
2022-12-11T14:26:19.823Z,57.14
2022-12-11T14:28:46.500Z,57.26
2022-12-11T14:31:15.504Z,57.25
2022-12-11T14:33:44.447Z,57.27
2022-12-11T14:36:11.293Z,56.88
2022-12-11T14:38:42.548Z,57.15
2022-12-11T14:41:13.288Z,57.67
2022-12-11T14:43:43.251Z,57.59
2022-12-11T14:46:15.716Z,57.66
2022-12-11T14:48:45.764Z,57.80
2022-12-11T14:51:14.771Z,57.38
2022-12-11T14:53:44.248Z,57.84
2022-12-11T14:56:16.667Z,57.32
2022-12-11T14:58:47.341Z,57.04
2022-12-11T15:01:22.390Z,57.19
2022-12-11T15:03:50.532Z,56.43
2022-12-11T15:06:25.866Z,55.75
2022-12-11T15:08:53.576Z,55.93
2022-12-11T15:11:20.225Z,56.58
2022-12-11T15:13:49.729Z,56.94
2022-12-11T15:16:16.475Z,57.13
2022-12-11T15:18:44.023Z,57.32
2022-12-11T15:21:13.097Z,57.20
2022-12-11T15:23:47.420Z,57.19
2022-12-11T15:26:14.089Z,57.25
2022-12-11T15:28:40.886Z,57.40
2022-12-11T15:31:22.032Z,57.09
2022-12-11T15:33:48.764Z,57.12
2022-12-11T15:36:30.292Z,57.40
2022-12-11T15:38:57.253Z,57.38
2022-12-11T15:41:27.265Z,57.68
2022-12-11T15:43:58.537Z,57.49
2022-12-11T15:46:25.660Z,57.29
2022-12-11T15:48:52.369Z,56.05
2022-12-11T15:51:19.004Z,56.37
2022-12-11T15:53:46.997Z,55.88
2022-12-11T15:56:14.365Z,56.38
2022-12-11T15:58:41.261Z,56.40
2022-12-11T16:01:07.930Z,57.84
2022-12-11T16:03:34.451Z,58.45
2022-12-11T16:06:00.999Z,58.84
2022-12-11T16:08:27.640Z,60.17
2022-12-11T16:10:56.243Z,61.21
2022-12-11T16:13:23.005Z,61.99
2022-12-11T16:15:50.512Z,61.99
2022-12-11T16:18:18.300Z,62.14
2022-12-11T16:20:45.329Z,62.06
2022-12-11T16:23:12.980Z,63.17
2022-12-11T16:25:40.318Z,62.52
2022-12-11T16:28:08.918Z,63.07
2022-12-11T16:30:36.401Z,63.06
2022-12-11T16:33:08.560Z,63.10
2022-12-11T16:35:38.492Z,62.50
2022-12-11T16:38:05.048Z,62.07
2022-12-11T16:40:31.522Z,60.91
2022-12-11T16:42:58.071Z,61.68
2022-12-11T16:45:26.397Z,61.94
2022-12-11T16:47:53.597Z,62.10
2022-12-11T16:50:20.261Z,61.82
2022-12-11T16:52:47.299Z,61.56
2022-12-11T16:55:14.722Z,61.52
2022-12-11T16:57:41.709Z,61.21
2022-12-11T17:00:09.440Z,60.83
2022-12-11T17:02:37.427Z,61.45
2022-12-11T17:05:04.405Z,62.28
2022-12-11T17:07:31.365Z,62.48
2022-12-11T17:09:57.843Z,61.75
2022-12-11T17:12:27.676Z,61.71
2022-12-11T17:14:54.397Z,61.70
2022-12-11T17:17:21.111Z,61.29
2022-12-11T17:19:48.980Z,61.04
2022-12-11T17:22:15.573Z,60.84
2022-12-11T17:24:42.094Z,61.13
2022-12-11T17:27:08.551Z,61.17
2022-12-11T17:29:35.106Z,61.47
2022-12-11T17:32:03.174Z,61.38
2022-12-11T17:34:34.612Z,61.56
2022-12-11T17:37:06.026Z,61.59
2022-12-11T17:39:32.989Z,61.78
2022-12-11T17:41:59.481Z,62.26
2022-12-11T17:44:26.736Z,62.12
2022-12-11T17:46:53.710Z,62.22
2022-12-11T17:49:20.282Z,62.46
2022-12-11T17:51:47.897Z,62.62
2022-12-11T17:54:15.889Z,62.16
2022-12-11T17:56:42.442Z,62.80
2022-12-11T17:59:08.985Z,62.44
2022-12-11T18:01:35.740Z,62.06
2022-12-11T18:04:02.505Z,61.84
2022-12-11T18:06:29.523Z,61.96
2022-12-11T18:08:56.319Z,61.79
2022-12-11T18:11:24.613Z,62.19
2022-12-11T18:13:51.723Z,62.02
2022-12-11T18:16:19.736Z,62.44
2022-12-11T18:18:46.774Z,62.24
2022-12-11T18:21:13.979Z,62.97
2022-12-11T18:23:40.557Z,63.04
2022-12-11T18:26:07.051Z,62.40
2022-12-11T18:28:35.032Z,63.26
2022-12-11T18:31:02.075Z,63.64
2022-12-11T18:33:29.025Z,63.71
2022-12-11T18:35:55.903Z,63.52
2022-12-11T18:38:22.848Z,63.68
2022-12-11T18:40:50.210Z,64.11
2022-12-11T18:43:16.751Z,63.44
2022-12-11T18:45:45.519Z,63.47
2022-12-11T18:48:12.677Z,62.70
2022-12-11T18:50:43.464Z,63.00
2022-12-11T18:53:09.938Z,64.17
2022-12-11T18:55:40.710Z,64.17
2022-12-11T18:58:07.195Z,64.36
2022-12-11T19:00:33.768Z,63.08
2022-12-11T19:03:02.033Z,63.14
2022-12-11T19:05:28.725Z,63.60
2022-12-11T19:07:55.657Z,64.45
2022-12-11T19:10:22.160Z,63.75
2022-12-11T19:12:49.356Z,63.32
2022-12-11T19:15:20.748Z,63.10
2022-12-11T19:17:49.948Z,62.79
2022-12-11T19:20:47.437Z,62.54
2022-12-11T19:23:05.552Z,63.78
2022-12-11T19:25:32.194Z,64.25
2022-12-11T19:27:58.779Z,64.24
2022-12-11T19:30:25.318Z,63.65
2022-12-11T19:32:52.968Z,63.82
2022-12-11T19:35:20.960Z,63.49
2022-12-11T19:37:47.456Z,63.68
2022-12-11T19:40:14.491Z,63.60
2022-12-11T19:42:41.113Z,63.86
2022-12-11T19:45:07.764Z,63.71
2022-12-11T19:47:34.409Z,64.44
2022-12-11T19:50:01.433Z,64.53
2022-12-11T19:52:29.296Z,63.97
2022-12-11T19:55:00.364Z,64.05
2022-12-11T19:57:26.890Z,64.23
2022-12-11T19:59:57.190Z,64.07
2022-12-11T20:02:24.120Z,63.76
2022-12-11T20:04:50.675Z,62.71
2022-12-11T20:07:17.352Z,62.01
2022-12-11T20:09:45.319Z,63.50
2022-12-11T20:12:12.493Z,63.86
2022-12-11T20:14:39.244Z,64.06
2022-12-11T20:17:14.502Z,64.35
2022-12-11T20:19:41.826Z,64.64
2022-12-11T20:22:09.144Z,65.26
2022-12-11T20:24:35.855Z,65.29
2022-12-11T20:27:04.110Z,65.16
2022-12-11T20:29:30.704Z,65.24
2022-12-11T20:31:59.608Z,64.43
2022-12-11T20:34:26.378Z,64.11
2022-12-11T20:36:52.902Z,63.97
2022-12-11T20:39:19.620Z,65.00
2022-12-11T20:41:46.176Z,64.61
2022-12-11T20:44:14.616Z,64.93
2022-12-11T20:46:41.132Z,63.65
2022-12-11T20:49:12.655Z,63.03
2022-12-11T20:51:39.281Z,62.55
2022-12-11T20:54:05.814Z,61.84
2022-12-11T20:56:32.341Z,61.55
2022-12-11T20:58:59.933Z,61.84
2022-12-11T21:01:29.144Z,63.37
2022-12-11T21:03:56.319Z,64.13
2022-12-11T21:06:25.450Z,64.97
2022-12-11T21:08:52.194Z,66.05
2022-12-11T21:11:19.120Z,65.70
2022-12-11T21:13:45.684Z,65.53
2022-12-11T21:16:12.327Z,64.48
2022-12-11T21:18:41.457Z,63.14
2022-12-11T21:21:07.920Z,63.33
2022-12-11T21:23:34.629Z,62.94
2022-12-11T21:26:01.434Z,62.10
2022-12-11T21:28:33.536Z,61.75
2022-12-11T21:31:02.355Z,61.44
2022-12-11T21:33:28.930Z,61.67
2022-12-11T21:35:57.670Z,60.90
2022-12-11T21:38:24.539Z,60.08
2022-12-11T21:40:51.435Z,60.21
2022-12-11T21:43:18.022Z,60.09
2022-12-11T21:46:01.778Z,59.92
2022-12-11T21:48:28.973Z,60.16
2022-12-11T21:51:03.724Z,61.13
2022-12-11T21:53:30.241Z,62.91
2022-12-11T21:55:56.783Z,64.29
2022-12-11T21:58:23.254Z,64.16
2022-12-11T22:00:49.785Z,66.04
2022-12-11T22:03:16.313Z,65.92
2022-12-11T22:05:42.911Z,66.06
2022-12-11T22:08:11.064Z,65.29
2022-12-11T22:10:37.615Z,64.53
2022-12-11T22:13:04.118Z,63.72
2022-12-11T22:15:30.643Z,62.91
2022-12-11T22:17:57.152Z,61.53
2022-12-11T22:20:23.933Z,60.92
2022-12-11T22:22:50.563Z,61.16
2022-12-11T22:25:18.696Z,61.77
2022-12-11T22:27:45.384Z,61.77
2022-12-11T22:30:12.516Z,61.87
2022-12-11T22:32:39.198Z,62.38
2022-12-11T22:35:06.222Z,63.76
2022-12-11T22:37:32.696Z,64.58
2022-12-11T22:39:59.324Z,63.65
2022-12-11T22:42:27.445Z,61.64
2022-12-11T22:44:53.989Z,61.09
2022-12-11T22:47:20.588Z,61.21
2022-12-11T22:49:47.279Z,60.45
2022-12-11T22:52:13.927Z,60.21
2022-12-11T22:54:40.986Z,59.79
2022-12-11T22:57:07.684Z,60.84
2022-12-11T22:59:36.249Z,62.47
2022-12-11T23:02:02.901Z,63.41
2022-12-11T23:04:29.513Z,64.32
2022-12-11T23:06:56.274Z,63.76
2022-12-11T23:09:22.964Z,62.77
2022-12-11T23:11:49.651Z,60.94
2022-12-11T23:14:17.212Z,61.82
2022-12-11T23:16:45.446Z,61.49
2022-12-11T23:19:12.381Z,61.59
2022-12-11T23:21:39.119Z,61.29
2022-12-11T23:24:06.193Z,60.49
2022-12-11T23:26:32.726Z,61.03
2022-12-11T23:28:59.452Z,63.47
2022-12-11T23:31:26.238Z,64.67
2022-12-11T23:33:54.134Z,64.59
2022-12-11T23:36:20.653Z,64.61
2022-12-11T23:38:52.562Z,64.38
2022-12-11T23:41:20.989Z,63.86
2022-12-11T23:43:47.451Z,64.16
2022-12-11T23:46:14.979Z,62.64
2022-12-11T23:48:42.054Z,61.87
2022-12-11T23:51:12.309Z,63.41
2022-12-11T23:53:38.803Z,64.00
2022-12-11T23:56:06.011Z,64.51
2022-12-11T23:58:32.573Z,65.25
